Time;durP1;ratioP1;P1;durP2;ratioP2;P2;SDS_P1;SDS_P2;PMS_P1;PMS_P2;Temp;Humidity;BMP_temperature;BMP_pressure;BME280_temperature;BME280_humidity;BME280_pressure;Samples;Min_cycle;Max_cycle;Signal;HPM_P1;HPM_P2
2023/06/02 00:02:23;;;;;;;12.97;5.63;;;13.80;99.90;;;;;;7286704;19;20507;-80
2023/06/02 00:04:52;;;;;;;11.40;5.80;;;13.70;99.90;;;;;;7291555;19;20745;-80
2023/06/02 00:07:18;;;;;;;11.47;5.90;;;13.60;99.90;;;;;;7293164;19;20208;-80
2023/06/02 00:09:44;;;;;;;10.20;5.10;;;13.40;99.90;;;;;;7314266;19;20189;-80
2023/06/02 00:12:13;;;;;;;11.80;5.20;;;13.40;99.90;;;;;;7289843;19;20677;-80
2023/06/02 00:14:42;;;;;;;9.30;5.33;;;13.30;99.90;;;;;;7286592;19;20195;-79
2023/06/02 00:17:08;;;;;;;13.10;4.97;;;13.20;99.90;;;;;;7284459;19;20386;-80
2023/06/02 00:19:35;;;;;;;11.23;5.67;;;13.20;99.90;;;;;;7287666;19;20207;-80
2023/06/02 00:22:03;;;;;;;9.27;5.00;;;13.20;99.90;;;;;;7286661;19;20190;-79
2023/06/02 00:24:29;;;;;;;12.17;5.37;;;13.30;99.90;;;;;;7285668;19;20192;-80
2023/06/02 00:26:55;;;;;;;14.00;5.50;;;13.30;99.90;;;;;;7287730;19;20588;-80
2023/06/02 00:29:21;;;;;;;8.70;4.97;;;13.30;99.90;;;;;;7287086;19;20213;-80
2023/06/02 00:31:46;;;;;;;9.23;4.93;;;13.30;99.90;;;;;;7285840;19;20205;-80
2023/06/02 00:34:12;;;;;;;9.73;4.93;;;13.40;99.90;;;;;;7310212;19;20541;-80
2023/06/02 00:36:38;;;;;;;9.03;4.77;;;13.40;99.90;;;;;;7284937;19;20617;-80
2023/06/02 00:39:04;;;;;;;11.03;4.80;;;13.30;99.90;;;;;;7284924;19;20584;-80
2023/06/02 00:41:31;;;;;;;11.70;5.70;;;13.30;99.90;;;;;;7287505;19;20890;-80
2023/06/02 00:43:56;;;;;;;11.73;5.87;;;13.40;99.90;;;;;;7287014;19;20281;-80
2023/06/02 00:46:22;;;;;;;12.70;5.60;;;13.50;99.90;;;;;;7286874;19;20632;-79
2023/06/02 00:48:49;;;;;;;12.53;6.13;;;13.60;99.90;;;;;;7286961;19;20181;-80
2023/06/02 00:51:19;;;;;;;10.23;5.43;;;13.50;99.90;;;;;;7308764;19;20186;-80
2023/06/02 00:53:46;;;;;;;12.27;5.60;;;13.60;99.90;;;;;;7278911;19;20196;-80
2023/06/02 00:56:15;;;;;;;12.43;5.30;;;13.60;99.90;;;;;;7308538;19;20245;-80
2023/06/02 00:58:43;;;;;;;11.80;5.27;;;13.60;99.90;;;;;;7282500;19;20182;-80
2023/06/02 01:01:10;;;;;;;9.53;4.90;;;13.60;99.90;;;;;;7287158;19;20181;-80
2023/06/02 01:03:42;;;;;;;12.23;5.30;;;13.40;99.90;;;;;;7285639;19;20260;-80
2023/06/02 01:06:09;;;;;;;10.93;5.20;;;13.50;99.90;;;;;;7285455;19;20189;-80
2023/06/02 01:08:38;;;;;;;12.30;5.10;;;13.40;99.90;;;;;;7287371;19;20225;-80
2023/06/02 01:11:06;;;;;;;10.47;5.23;;;13.60;99.90;;;;;;7291597;19;20190;-80
2023/06/02 01:13:33;;;;;;;9.83;5.30;;;13.70;99.90;;;;;;7284297;19;20704;-80
2023/06/02 01:15:59;;;;;;;9.17;4.73;;;13.70;99.90;;;;;;7284405;19;20646;-79
2023/06/02 01:18:26;;;;;;;9.70;5.40;;;13.80;99.90;;;;;;7282618;19;20185;-80
2023/06/02 01:20:57;;;;;;;9.50;4.60;;;13.70;99.90;;;;;;7284293;19;20188;-80
2023/06/02 01:23:34;;;;;;;12.10;5.00;;;13.70;99.90;;;;;;7285675;19;20208;-80
2023/06/02 01:26:00;;;;;;;9.17;4.53;;;13.70;99.90;;;;;;7284326;19;20197;-80
2023/06/02 01:28:27;;;;;;;11.70;5.37;;;13.50;99.90;;;;;;7284900;19;20594;-80
2023/06/02 01:31:00;;;;;;;10.73;4.90;;;13.40;99.90;;;;;;7284123;19;20262;-80
2023/06/02 01:34:04;;;;;;;11.40;5.03;;;13.50;99.90;;;;;;7286079;19;20323;-80
2023/06/02 01:36:32;;;;;;;8.87;4.47;;;13.40;99.90;;;;;;7181627;19;2006489;-81
2023/06/02 01:39:01;;;;;;;9.87;4.97;;;13.40;99.90;;;;;;7284204;19;21092;-81
2023/06/02 01:41:28;;;;;;;9.23;4.57;;;13.50;99.90;;;;;;7283862;19;20198;-80
2023/06/02 01:43:55;;;;;;;10.47;4.57;;;13.40;99.90;;;;;;7284009;19;20597;-80
2023/06/02 01:46:23;;;;;;;12.80;4.80;;;13.30;99.90;;;;;;7284747;19;20648;-80
2023/06/02 01:48:52;;;;;;;11.20;4.60;;;13.10;99.90;;;;;;7284013;19;20189;-80
2023/06/02 01:51:19;;;;;;;15.40;4.33;;;13.10;99.90;;;;;;7284532;19;20559;-80
2023/06/02 01:53:44;;;;;;;13.23;5.33;;;13.20;99.90;;;;;;7305874;19;20194;-80
2023/06/02 01:56:10;;;;;;;12.27;5.13;;;13.30;99.90;;;;;;7284342;19;20260;-80
2023/06/02 01:58:36;;;;;;;13.63;5.40;;;13.40;99.90;;;;;;7284039;19;20222;-80
2023/06/02 02:01:02;;;;;;;13.23;4.87;;;13.40;99.90;;;;;;7284087;19;20193;-80
2023/06/02 02:03:30;;;;;;;12.00;5.20;;;13.40;99.90;;;;;;7283861;19;20569;-80
2023/06/02 02:05:56;;;;;;;9.60;5.00;;;13.30;99.90;;;;;;7284778;19;20197;-80
2023/06/02 02:08:22;;;;;;;13.93;5.17;;;13.00;99.90;;;;;;7284282;19;20216;-80
2023/06/02 02:10:48;;;;;;;13.17;4.80;;;13.10;99.90;;;;;;7283510;19;20193;-80
2023/06/02 02:13:16;;;;;;;12.73;4.70;;;13.10;99.90;;;;;;7281754;19;20206;-81
2023/06/02 02:15:43;;;;;;;11.10;4.50;;;13.10;99.90;;;;;;7304849;19;20181;-81
2023/06/02 02:18:09;;;;;;;14.83;4.70;;;13.10;99.90;;;;;;7283105;19;20568;-81
2023/06/02 02:20:40;;;;;;;12.17;4.40;;;13.10;99.90;;;;;;7283007;19;20193;-81
2023/06/02 02:23:06;;;;;;;15.40;5.63;;;13.00;99.90;;;;;;7281789;19;20205;-81
2023/06/02 02:25:32;;;;;;;14.60;5.00;;;13.00;99.90;;;;;;7282639;19;20652;-81
2023/06/02 02:27:58;;;;;;;12.37;5.10;;;12.90;99.90;;;;;;7282255;19;20196;-81
2023/06/02 02:30:24;;;;;;;12.80;4.83;;;12.90;99.90;;;;;;7282217;19;20199;-81
2023/06/02 02:32:55;;;;;;;14.07;5.03;;;13.00;99.90;;;;;;7282993;19;20205;-81
2023/06/02 02:35:21;;;;;;;11.90;5.40;;;13.10;99.90;;;;;;7282492;19;20239;-81
2023/06/02 02:37:47;;;;;;;13.23;5.40;;;13.10;99.90;;;;;;7280884;19;20185;-81
2023/06/02 02:40:16;;;;;;;12.20;4.90;;;13.10;99.90;;;;;;7288238;19;20205;-81
2023/06/02 02:42:42;;;;;;;19.97;5.37;;;13.10;99.90;;;;;;7311073;19;20189;-81
2023/06/02 02:45:08;;;;;;;14.43;4.80;;;13.00;99.90;;;;;;7288990;19;20261;-81
2023/06/02 02:47:34;;;;;;;15.77;5.37;;;13.10;99.90;;;;;;7289700;19;21267;-81
2023/06/02 02:50:00;;;;;;;18.37;5.63;;;13.20;99.90;;;;;;7288350;19;20256;-79
2023/06/02 02:52:28;;;;;;;14.10;5.20;;;13.30;99.90;;;;;;7288181;19;20196;-81
2023/06/02 02:54:53;;;;;;;17.03;5.90;;;13.40;99.90;;;;;;7289685;19;20183;-82
2023/06/02 02:57:19;;;;;;;14.90;4.40;;;13.30;99.90;;;;;;7288259;19;20216;-81
2023/06/02 02:59:45;;;;;;;15.70;5.10;;;13.20;99.90;;;;;;7301794;19;20550;-80
2023/06/02 03:02:12;;;;;;;13.30;4.90;;;13.30;99.90;;;;;;7309627;19;20255;-80
2023/06/02 03:04:40;;;;;;;13.77;5.00;;;13.10;99.90;;;;;;7286483;19;20188;-80
2023/06/02 03:07:07;;;;;;;15.43;5.40;;;13.10;99.90;;;;;;7287142;19;20186;-80
2023/06/02 03:09:33;;;;;;;13.43;5.60;;;13.10;99.90;;;;;;7288769;19;20258;-80
2023/06/02 03:12:00;;;;;;;13.17;5.10;;;13.00;99.90;;;;;;7285636;19;20201;-79
2023/06/02 03:14:28;;;;;;;15.13;4.97;;;13.00;99.90;;;;;;7288341;19;20181;-80
2023/06/02 03:16:56;;;;;;;12.07;5.03;;;12.90;99.90;;;;;;7289233;19;20190;-80
2023/06/02 03:19:24;;;;;;;15.17;5.10;;;13.00;99.90;;;;;;7288340;19;20198;-80
2023/06/02 03:21:51;;;;;;;17.50;5.47;;;12.90;99.90;;;;;;7288637;19;20189;-80
2023/06/02 03:24:19;;;;;;;18.43;5.00;;;12.90;99.90;;;;;;7287343;19;20180;-81
2023/06/02 03:26:51;;;;;;;15.33;5.40;;;12.80;99.90;;;;;;7288079;19;20245;-81
2023/06/02 03:29:18;;;;;;;14.27;4.90;;;12.90;99.90;;;;;;7288701;19;20660;-81
2023/06/02 03:31:45;;;;;;;10.07;5.00;;;12.90;99.90;;;;;;7306134;19;20203;-81
2023/06/02 03:34:14;;;;;;;13.23;5.10;;;12.90;99.90;;;;;;7308033;19;20253;-79
2023/06/02 03:36:40;;;;;;;16.67;4.67;;;12.80;99.90;;;;;;7295370;19;20189;-80
2023/06/02 03:39:07;;;;;;;17.80;4.43;;;12.80;99.90;;;;;;7285673;19;20892;-81
2023/06/02 03:41:35;;;;;;;17.17;3.97;;;12.70;99.90;;;;;;7288869;19;20185;-81
2023/06/02 03:44:04;;;;;;;11.60;3.70;;;12.70;99.90;;;;;;7286647;19;20524;-81
2023/06/02 03:46:30;;;;;;;15.13;3.63;;;12.70;99.90;;;;;;7287689;19;20196;-81
2023/06/02 03:48:58;;;;;;;14.57;4.23;;;12.50;99.90;;;;;;7288090;19;20210;-81
2023/06/02 03:51:26;;;;;;;15.73;3.70;;;12.40;99.90;;;;;;7286286;19;20205;-81
2023/06/02 03:53:53;;;;;;;11.73;3.43;;;12.40;99.90;;;;;;7286072;19;20211;-81
2023/06/02 03:56:20;;;;;;;14.97;4.10;;;12.30;99.90;;;;;;7286967;19;20632;-81
2023/06/02 03:58:47;;;;;;;11.43;3.80;;;12.20;99.90;;;;;;7286481;19;20189;-81
2023/06/02 04:01:16;;;;;;;15.07;4.07;;;12.20;99.90;;;;;;7310168;19;20223;-81
2023/06/02 04:03:42;;;;;;;14.20;3.93;;;12.20;99.90;;;;;;7287817;19;20262;-80
2023/06/02 04:06:12;;;;;;;14.60;4.30;;;12.20;99.90;;;;;;7286761;19;20191;-81
2023/06/02 04:08:37;;;;;;;13.43;3.70;;;12.10;99.90;;;;;;7290024;19;20234;-79
2023/06/02 04:11:04;;;;;;;17.73;4.27;;;12.20;99.90;;;;;;7290868;19;20522;-79
2023/06/02 04:13:31;;;;;;;14.80;4.03;;;12.20;99.90;;;;;;7290865;19;20586;-79
2023/06/02 04:15:58;;;;;;;18.97;5.27;;;12.10;99.90;;;;;;7291545;19;20203;-80
2023/06/02 04:18:26;;;;;;;16.67;4.10;;;12.30;99.90;;;;;;7289582;19;20216;-80
2023/06/02 04:20:52;;;;;;;15.53;4.50;;;12.40;99.90;;;;;;7285912;19;20186;-79
2023/06/02 04:23:18;;;;;;;16.67;4.73;;;12.40;99.90;;;;;;7287010;19;20180;-80
2023/06/02 04:25:43;;;;;;;12.40;4.60;;;12.40;99.90;;;;;;7308596;19;20644;-80
2023/06/02 04:28:10;;;;;;;15.40;4.70;;;12.40;99.90;;;;;;7287750;19;20241;-81
2023/06/02 04:30:38;;;;;;;12.37;3.90;;;12.50;99.90;;;;;;7283673;19;20181;-80
2023/06/02 04:33:04;;;;;;;17.40;4.03;;;12.50;99.90;;;;;;7286862;19;20260;-80
2023/06/02 04:35:30;;;;;;;15.77;4.27;;;12.70;99.90;;;;;;7287664;19;20209;-81
2023/06/02 04:37:56;;;;;;;14.23;3.70;;;12.60;99.90;;;;;;7286077;19;20184;-80
2023/06/02 04:40:22;;;;;;;16.37;4.40;;;12.50;99.90;;;;;;7286248;19;20192;-80
2023/06/02 04:42:48;;;;;;;12.37;4.10;;;12.40;99.90;;;;;;7288287;19;20557;-79
2023/06/02 04:45:16;;;;;;;15.27;4.43;;;12.30;99.90;;;;;;7308570;19;20202;-79
2023/06/02 04:47:43;;;;;;;15.73;4.43;;;12.40;99.90;;;;;;7287475;19;20207;-80
2023/06/02 04:50:13;;;;;;;14.40;4.23;;;12.30;99.90;;;;;;7286138;19;20263;-80
2023/06/02 04:52:40;;;;;;;16.33;4.40;;;12.30;99.90;;;;;;7286315;19;20192;-80
2023/06/02 04:55:11;;;;;;;13.83;3.80;;;12.30;99.90;;;;;;7286959;19;20216;-80
2023/06/02 04:57:39;;;;;;;20.00;4.60;;;12.30;99.90;;;;;;7284931;19;20195;-80
2023/06/02 05:00:07;;;;;;;13.97;4.73;;;12.40;99.90;;;;;;7285596;19;20303;-79
2023/06/02 05:02:34;;;;;;;13.40;4.47;;;12.40;99.90;;;;;;7284301;19;20547;-80
2023/06/02 05:05:05;;;;;;;14.73;4.20;;;12.40;99.90;;;;;;7284719;19;20218;-81
2023/06/02 05:07:33;;;;;;;16.73;4.47;;;12.40;99.90;;;;;;7286189;19;20214;-81
2023/06/02 05:09:59;;;;;;;18.00;4.50;;;12.40;99.90;;;;;;7285489;19;20256;-79
2023/06/02 05:12:25;;;;;;;15.93;4.27;;;12.60;99.90;;;;;;7284391;19;20211;-79
2023/06/02 05:14:53;;;;;;;17.07;4.90;;;12.80;99.90;;;;;;7284723;19;20189;-79
2023/06/02 05:17:23;;;;;;;16.10;4.60;;;12.90;99.90;;;;;;7284222;19;20655;-78
2023/06/02 05:19:53;;;;;;;17.57;5.03;;;12.80;99.90;;;;;;7284842;19;20593;-79
2023/06/02 05:22:19;;;;;;;13.17;4.70;;;12.90;99.90;;;;;;7285868;19;20277;-80
2023/06/02 05:24:45;;;;;;;17.27;4.83;;;12.90;99.90;;;;;;7306805;19;20187;-82
2023/06/02 05:27:11;;;;;;;13.23;5.00;;;12.80;99.90;;;;;;7285261;19;20204;-78
2023/06/02 05:29:38;;;;;;;15.60;5.10;;;12.70;99.90;;;;;;7284493;19;20199;-79
2023/06/02 05:32:06;;;;;;;16.17;4.73;;;12.80;99.90;;;;;;7285124;19;20185;-80
2023/06/02 05:34:32;;;;;;;15.03;4.43;;;12.80;99.90;;;;;;7283971;19;20200;-80
2023/06/02 05:37:00;;;;;;;14.97;4.90;;;12.80;99.90;;;;;;7284194;19;20190;-80
2023/06/02 05:39:26;;;;;;;15.83;5.20;;;12.90;99.90;;;;;;7286223;19;20188;-80
2023/06/02 05:41:52;;;;;;;16.73;5.57;;;13.00;99.90;;;;;;7285044;19;20273;-80
2023/06/02 05:44:18;;;;;;;18.50;5.73;;;13.00;99.90;;;;;;7284588;19;20267;-79
2023/06/02 05:46:44;;;;;;;18.07;5.70;;;13.00;99.90;;;;;;7308218;19;20195;-78
2023/06/02 05:49:10;;;;;;;17.63;5.17;;;13.10;99.90;;;;;;7285246;19;20200;-80
2023/06/02 05:51:37;;;;;;;12.93;4.80;;;13.10;99.90;;;;;;7283323;19;20675;-80
2023/06/02 05:54:05;;;;;;;16.80;5.60;;;13.00;99.90;;;;;;7283675;19;20192;-79
2023/06/02 05:56:31;;;;;;;16.50;5.67;;;13.10;99.90;;;;;;7283985;19;20185;-79
2023/06/02 05:58:57;;;;;;;14.07;5.37;;;13.20;99.90;;;;;;7283543;19;20545;-81
2023/06/02 06:01:23;;;;;;;13.20;5.10;;;13.20;99.90;;;;;;7283896;19;20190;-80
2023/06/02 06:03:49;;;;;;;18.43;5.87;;;13.30;99.90;;;;;;7284822;19;20182;-79
2023/06/02 06:06:17;;;;;;;16.70;5.60;;;13.50;99.90;;;;;;7283226;19;20179;-81
2023/06/02 06:08:43;;;;;;;13.43;4.70;;;13.40;99.90;;;;;;7307073;19;20197;-81
2023/06/02 06:11:08;;;;;;;17.70;5.37;;;13.40;99.90;;;;;;7283166;19;20188;-81
2023/06/02 06:13:35;;;;;;;17.97;5.30;;;13.40;99.90;;;;;;7288912;19;20649;-81
2023/06/02 06:16:02;;;;;;;15.73;5.17;;;13.50;99.90;;;;;;7291508;19;20729;-80
2023/06/02 06:18:27;;;;;;;21.43;5.67;;;13.60;99.90;;;;;;7290130;19;20197;-83
2023/06/02 06:20:53;;;;;;;16.57;6.40;;;13.50;99.90;;;;;;7289043;19;20189;-83
2023/06/02 06:23:20;;;;;;;19.30;6.20;;;13.60;99.90;;;;;;7289586;19;20185;-83
2023/06/02 06:25:47;;;;;;;15.90;5.63;;;13.50;99.90;;;;;;7295782;19;20268;-83
2023/06/02 06:28:13;;;;;;;20.70;6.60;;;13.60;99.90;;;;;;7312645;19;20212;-83
2023/06/02 06:30:40;;;;;;;17.67;5.90;;;13.50;99.90;;;;;;7290776;19;20188;-83
2023/06/02 06:33:08;;;;;;;19.57;6.70;;;13.50;99.90;;;;;;7291184;19;20191;-83
2023/06/02 06:35:35;;;;;;;16.97;6.40;;;13.50;99.90;;;;;;7289919;19;20193;-81
2023/06/02 06:38:04;;;;;;;18.37;6.87;;;13.50;99.90;;;;;;7290538;19;20197;-82
2023/06/02 06:40:31;;;;;;;16.73;6.97;;;13.50;99.90;;;;;;7290337;19;20196;-82
2023/06/02 06:42:57;;;;;;;17.30;7.13;;;13.40;99.90;;;;;;7289065;19;20193;-82
2023/06/02 06:45:28;;;;;;;20.33;7.53;;;13.40;99.90;;;;;;7291574;19;20217;-82
2023/06/02 06:47:54;;;;;;;17.83;6.90;;;13.50;99.90;;;;;;7290292;19;20570;-82
2023/06/02 06:50:20;;;;;;;20.27;6.83;;;13.50;99.90;;;;;;7288826;19;20185;-81
2023/06/02 06:52:47;;;;;;;19.47;6.37;;;13.40;99.90;;;;;;7301894;19;20197;-81
2023/06/02 06:55:13;;;;;;;22.67;6.80;;;13.50;99.90;;;;;;7311915;19;20616;-82
2023/06/02 06:57:38;;;;;;;18.77;5.93;;;13.60;99.90;;;;;;7290474;19;20199;-81
2023/06/02 07:00:05;;;;;;;12.23;5.33;;;13.80;99.90;;;;;;7290690;19;20189;-82
2023/06/02 07:02:31;;;;;;;18.10;5.20;;;13.70;99.90;;;;;;7288873;19;20547;-81
2023/06/02 07:04:57;;;;;;;18.63;5.67;;;13.90;99.90;;;;;;7289160;19;20663;-81
2023/06/02 07:07:23;;;;;;;19.83;6.20;;;13.90;99.90;;;;;;7290265;19;20191;-81
2023/06/02 07:09:49;;;;;;;16.77;5.43;;;13.90;99.90;;;;;;7289385;19;20278;-81
2023/06/02 07:12:15;;;;;;;18.80;5.40;;;14.10;99.90;;;;;;7312640;19;20200;-83
2023/06/02 07:14:40;;;;;;;16.93;5.20;;;14.10;99.90;;;;;;7290294;19;20206;-82
2023/06/02 07:17:07;;;;;;;14.27;5.10;;;14.10;99.90;;;;;;7286896;19;20634;-81
2023/06/02 07:19:33;;;;;;;19.43;5.40;;;14.10;99.90;;;;;;7287436;19;20186;-81
2023/06/02 07:21:58;;;;;;;18.43;5.40;;;14.30;99.90;;;;;;7289121;19;20204;-80
2023/06/02 07:24:24;;;;;;;16.47;5.70;;;14.60;99.90;;;;;;7287305;19;20184;-81
2023/06/02 07:26:50;;;;;;;18.63;5.50;;;14.50;99.90;;;;;;7286655;19;20216;-81
2023/06/02 07:29:16;;;;;;;14.70;5.27;;;14.50;99.90;;;;;;7305608;19;20188;-81
2023/06/02 07:31:43;;;;;;;12.17;4.90;;;14.80;99.90;;;;;;7301695;19;20196;-81
2023/06/02 07:34:09;;;;;;;13.57;5.87;;;14.90;99.90;;;;;;7287128;19;20698;-80
2023/06/02 07:36:34;;;;;;;15.27;5.83;;;15.10;99.90;;;;;;7288907;19;20209;-81
2023/06/02 07:39:01;;;;;;;18.43;6.17;;;15.40;99.90;;;;;;7290037;19;20209;-81
2023/06/02 07:41:27;;;;;;;14.27;5.50;;;15.50;99.90;;;;;;7286996;19;20198;-81
2023/06/02 07:43:54;;;;;;;17.03;5.97;;;15.60;99.90;;;;;;7289382;19;20259;-81
2023/06/02 07:46:19;;;;;;;19.50;6.60;;;15.60;99.90;;;;;;7286312;19;20188;-81
2023/06/02 07:48:45;;;;;;;17.37;6.67;;;15.50;99.90;;;;;;7311206;19;20217;-81
2023/06/02 07:51:11;;;;;;;20.20;7.40;;;15.20;99.90;;;;;;7287431;19;20191;-81
2023/06/02 07:53:37;;;;;;;17.83;6.50;;;15.00;99.90;;;;;;7287232;19;20183;-81
2023/06/02 07:56:02;;;;;;;17.40;6.50;;;14.90;99.90;;;;;;7287650;19;20208;-80
2023/06/02 07:58:28;;;;;;;14.67;5.53;;;15.10;99.90;;;;;;7286935;19;20200;-82
2023/06/02 08:00:54;;;;;;;14.93;5.93;;;15.30;99.90;;;;;;7286342;19;20188;-81
2023/06/02 08:03:21;;;;;;;12.20;5.10;;;15.40;99.90;;;;;;7285421;19;20191;-81
2023/06/02 08:05:47;;;;;;;12.13;5.23;;;15.30;99.90;;;;;;7295786;19;20273;-80
2023/06/02 08:08:12;;;;;;;15.90;5.57;;;15.50;99.90;;;;;;7307832;19;20191;-81
2023/06/02 08:10:38;;;;;;;14.47;4.90;;;15.60;99.90;;;;;;7288319;19;20197;-81
2023/06/02 08:13:04;;;;;;;15.90;4.83;;;15.50;99.90;;;;;;7287723;19;20581;-81
2023/06/02 08:15:31;;;;;;;11.47;4.07;;;15.60;99.90;;;;;;7286952;19;20211;-81
2023/06/02 08:17:56;;;;;;;17.67;4.30;;;16.00;99.90;;;;;;7287303;19;20691;-82
2023/06/02 08:20:22;;;;;;;12.87;3.77;;;16.70;99.90;;;;;;7288083;19;20196;-81
2023/06/02 08:22:48;;;;;;;11.70;3.47;;;17.30;99.90;;;;;;7287324;19;20196;-80
2023/06/02 08:25:15;;;;;;;16.27;4.47;;;17.50;99.90;;;;;;7308091;19;20189;-81
2023/06/02 08:27:44;;;;;;;9.37;3.80;;;17.20;99.90;;;;;;7285839;19;20550;-81
2023/06/02 08:30:12;;;;;;;9.63;3.80;;;17.10;99.90;;;;;;7287760;19;20189;-82
2023/06/02 08:32:37;;;;;;;14.40;4.30;;;16.60;99.90;;;;;;7286018;19;20197;-81
2023/06/02 08:35:04;;;;;;;13.43;4.40;;;16.50;99.90;;;;;;7286961;19;20215;-81
2023/06/02 08:37:32;;;;;;;10.47;4.33;;;17.10;99.90;;;;;;7283874;19;20264;-82
2023/06/02 08:39:58;;;;;;;17.47;4.17;;;17.60;99.90;;;;;;7286323;19;20193;-81
2023/06/02 08:42:26;;;;;;;14.10;4.20;;;17.60;99.90;;;;;;7286794;19;20257;-81
2023/06/02 08:44:52;;;;;;;14.37;4.30;;;17.80;99.90;;;;;;7285227;19;20196;-82
2023/06/02 08:47:23;;;;;;;14.00;3.80;;;18.00;99.90;;;;;;7287179;19;20188;-81
2023/06/02 08:49:49;;;;;;;12.53;3.60;;;17.90;99.90;;;;;;7285892;19;20189;-81
2023/06/02 08:52:28;;;;;;;14.40;4.30;;;17.70;99.90;;;;;;7307742;19;20193;-83
2023/06/02 08:54:55;;;;;;;12.80;3.90;;;17.30;99.90;;;;;;7184752;19;2005120;-81
2023/06/02 08:57:21;;;;;;;13.57;3.93;;;17.30;99.90;;;;;;7285566;19;20290;-83
2023/06/02 08:59:47;;;;;;;14.37;4.27;;;18.10;99.90;;;;;;7290178;19;20193;-81
2023/06/02 09:02:14;;;;;;;14.80;4.70;;;18.30;99.90;;;;;;7307877;19;20191;-83
2023/06/02 09:04:40;;;;;;;16.67;4.23;;;19.00;99.90;;;;;;7285257;19;20192;-84
2023/06/02 09:07:18;;;;;;;11.97;3.47;;;19.10;99.90;;;;;;7286387;19;20341;-84
2023/06/02 09:09:47;;;;;;;15.67;4.10;;;18.80;99.90;;;;;;7284912;19;20199;-84
2023/06/02 09:12:14;;;;;;;17.00;3.87;;;18.40;99.90;;;;;;7286587;19;20181;-83
2023/06/02 09:14:40;;;;;;;15.00;4.43;;;18.00;99.90;;;;;;7286168;19;20199;-83
2023/06/02 09:17:28;;;;;;;15.33;3.80;;;18.00;99.90;;;;;;7286771;19;20250;-85
2023/06/02 09:19:57;;;;;;;16.37;4.30;;;18.10;99.90;;;;;;7183090;19;2004413;-84
2023/06/02 09:22:23;;;;;;;12.93;3.70;;;17.90;99.90;;;;;;7285864;19;20185;-85
2023/06/02 09:24:50;;;;;;;14.80;4.33;;;17.90;99.90;;;;;;7284642;19;20184;-83
2023/06/02 09:27:16;;;;;;;16.90;3.67;;;17.50;99.90;;;;;;7305243;19;20203;-81
2023/06/02 09:29:44;;;;;;;14.70;3.43;;;18.90;99.90;;;;;;7301852;19;20191;-84
2023/06/02 09:32:17;;;;;;;15.00;3.47;;;20.80;99.90;;;;;;7287123;19;20218;-84
2023/06/02 09:34:45;;;;;;;10.87;3.47;;;22.90;99.90;;;;;;7285626;19;20186;-84
2023/06/02 09:37:18;;;;;;;13.37;3.50;;;22.70;99.90;;;;;;7285359;19;20205;-84
2023/06/02 09:39:53;;;;;;;14.27;3.50;;;22.70;99.90;;;;;;7287030;19;20281;-84
2023/06/02 09:42:22;;;;;;;17.03;4.47;;;23.00;99.90;;;;;;7264075;19;20187;-84
2023/06/02 09:45:04;;;;;;;13.60;3.77;;;22.70;99.90;;;;;;7285386;19;20192;-84
2023/06/02 09:47:36;;;;;;;12.90;3.80;;;23.70;99.90;;;;;;7287026;19;20192;-84
2023/06/02 09:50:03;;;;;;;12.67;3.87;;;23.50;99.90;;;;;;7285923;19;20665;-84
2023/06/02 09:52:28;;;;;;;13.03;3.43;;;22.50;99.90;;;;;;7286638;19;20188;-82
2023/06/02 09:54:54;;;;;;;13.93;3.63;;;21.90;99.90;;;;;;7286689;19;20220;-84
2023/06/02 09:57:20;;;;;;;13.40;3.60;;;22.40;99.90;;;;;;7285437;19;20188;-83
2023/06/02 09:59:46;;;;;;;11.33;3.60;;;22.70;99.90;;;;;;7304991;19;20217;-82
2023/06/02 10:02:13;;;;;;;11.23;3.33;;;22.40;99.90;;;;;;7294564;19;20732;-84
2023/06/02 10:04:39;;;;;;;14.27;4.00;;;22.50;99.90;;;;;;7289932;19;20188;-83
2023/06/02 10:07:16;;;;;;;11.10;3.80;;;23.00;99.90;;;;;;7287241;19;20204;-84
2023/06/02 10:10:14;;;;;;;14.50;4.30;;;23.50;99.30;;;;;;7286731;19;20184;-84
2023/06/02 10:12:58;;;;;;;11.90;4.30;;;23.50;97.20;;;;;;7182426;19;2005993;-84
2023/06/02 10:15:36;;;;;;;12.33;3.50;;;23.20;98.20;;;;;;7183247;19;2004684;-84
2023/06/02 10:18:08;;;;;;;13.97;3.93;;;23.50;97.50;;;;;;7283909;19;20290;-84
2023/06/02 10:21:09;;;;;;;10.90;3.77;;;24.50;98.10;;;;;;7284403;19;20197;-84
2023/06/02 10:23:47;;;;;;;13.27;4.30;;;25.60;96.10;;;;;;7182825;19;2004799;-85
2023/06/02 10:26:19;;;;;;;15.10;4.50;;;24.60;93.70;;;;;;7284891;19;20193;-84
2023/06/02 10:28:45;;;;;;;14.97;4.30;;;23.10;95.80;;;;;;7285580;19;21048;-84
2023/06/02 10:31:12;;;;;;;15.63;4.27;;;23.60;97.50;;;;;;7286725;19;20181;-84
2023/06/02 10:33:42;;;;;;;11.60;5.03;;;23.10;96.20;;;;;;7286259;19;20951;-84
2023/06/02 10:36:08;;;;;;;13.93;4.87;;;22.50;96.40;;;;;;7285578;19;20629;-84
2023/06/02 10:38:35;;;;;;;15.50;4.90;;;23.10;97.30;;;;;;7284474;19;20203;-83
2023/06/02 10:41:01;;;;;;;13.33;4.50;;;23.50;96.00;;;;;;7284725;19;20218;-83
2023/06/02 10:43:27;;;;;;;13.33;5.03;;;23.50;94.20;;;;;;7283854;19;20185;-82
2023/06/02 10:45:55;;;;;;;14.90;4.13;;;22.30;96.10;;;;;;7282294;19;20353;-82
2023/06/02 10:48:40;;;;;;;13.77;4.50;;;22.50;96.40;;;;;;7283494;19;20185;-82
2023/06/02 10:51:08;;;;;;;10.07;4.37;;;23.50;96.40;;;;;;7285687;19;20193;-83
2023/06/02 10:53:54;;;;;;;13.10;5.13;;;23.80;95.20;;;;;;7285190;19;20193;-83
2023/06/02 10:56:41;;;;;;;17.10;5.10;;;24.00;94.70;;;;;;7263043;19;20356;-83
2023/06/02 10:59:08;;;;;;;16.50;5.03;;;23.90;94.60;;;;;;7283527;19;20201;-83
2023/06/02 11:01:48;;;;;;;13.57;5.30;;;24.10;95.90;;;;;;7289487;19;20203;-83
2023/06/02 11:04:24;;;;;;;13.57;5.13;;;24.20;93.70;;;;;;7289848;19;20192;-83
2023/06/02 11:07:18;;;;;;;16.80;4.67;;;24.10;93.80;;;;;;7267571;19;20192;-83
2023/06/02 11:09:55;;;;;;;13.27;4.93;;;24.60;94.50;;;;;;7290799;19;20685;-83
2023/06/02 11:12:41;;;;;;;12.98;4.75;;;25.50;92.80;;;;;;7266631;19;20188;-82
2023/06/02 11:15:09;;;;;;;13.82;5.03;;;25.60;90.70;;;;;;7289919;19;20204;-83
2023/06/02 11:17:35;;;;;;;14.03;4.63;;;24.70;90.10;;;;;;7289046;19;20217;-83
2023/06/02 11:20:05;;;;;;;12.83;4.60;;;24.20;91.70;;;;;;7290225;19;20189;-82
2023/06/02 11:22:32;;;;;;;12.77;4.73;;;24.50;92.00;;;;;;7290470;19;20193;-83
2023/06/02 11:24:59;;;;;;;12.10;3.97;;;24.50;91.30;;;;;;7287131;19;20649;-82
2023/06/02 11:27:36;;;;;;;16.57;4.50;;;24.50;91.20;;;;;;7288614;19;20218;-82
2023/06/02 11:30:09;;;;;;;14.00;4.60;;;24.80;91.20;;;;;;7288994;19;20524;-83
2023/06/02 11:32:35;;;;;;;13.90;4.40;;;25.60;89.50;;;;;;7288765;19;20192;-83
2023/06/02 11:35:05;;;;;;;13.87;4.73;;;26.20;88.50;;;;;;7290244;19;20197;-83
2023/06/02 11:37:31;;;;;;;14.53;5.20;;;25.10;87.70;;;;;;7289211;19;20193;-83
2023/06/02 11:39:57;;;;;;;17.90;5.87;;;24.30;91.50;;;;;;7289447;19;20191;-83
2023/06/02 11:42:42;;;;;;;18.70;5.17;;;24.80;90.10;;;;;;7289378;19;20548;-83
2023/06/02 11:45:28;;;;;;;16.17;4.93;;;24.80;91.10;;;;;;7288593;19;20192;-82
2023/06/02 11:48:01;;;;;;;12.77;4.87;;;24.50;89.90;;;;;;7186216;19;2004747;-82
2023/06/02 11:50:28;;;;;;;15.00;5.13;;;24.30;90.10;;;;;;7289124;19;20214;-83
2023/06/02 11:52:55;;;;;;;16.57;5.33;;;23.90;90.10;;;;;;7288927;19;20189;-82
2023/06/02 11:55:25;;;;;;;15.57;5.13;;;23.60;90.60;;;;;;7288848;19;20200;-82
2023/06/02 11:57:50;;;;;;;15.60;4.83;;;24.10;89.40;;;;;;7287999;19;20736;-82
2023/06/02 12:00:16;;;;;;;14.17;4.60;;;23.90;92.10;;;;;;7309765;19;20221;-84
2023/06/02 12:02:48;;;;;;;14.20;5.10;;;24.10;92.80;;;;;;7287800;19;20223;-82
2023/06/02 12:05:33;;;;;;;17.80;5.03;;;24.70;92.40;;;;;;7287988;19;20192;-82
2023/06/02 12:08:20;;;;;;;13.63;4.07;;;23.90;90.70;;;;;;7185764;19;2004649;-83
2023/06/02 12:10:47;;;;;;;15.57;4.87;;;23.00;92.60;;;;;;7288960;19;20188;-82
2023/06/02 12:13:30;;;;;;;14.70;4.63;;;21.90;93.70;;;;;;7288867;19;20213;-82
2023/06/02 12:16:16;;;;;;;11.33;4.10;;;21.50;94.80;;;;;;7183822;19;2006416;-83
2023/06/02 12:18:42;;;;;;;12.83;4.70;;;21.00;94.60;;;;;;7287635;19;20207;-83
2023/06/02 12:21:23;;;;;;;17.17;5.00;;;20.40;95.40;;;;;;7287880;19;20644;-83
2023/06/02 12:23:49;;;;;;;19.07;5.30;;;20.20;95.80;;;;;;7264676;19;20195;-82
2023/06/02 12:26:16;;;;;;;18.30;5.27;;;20.10;96.70;;;;;;7309233;19;20704;-83
2023/06/02 12:28:42;;;;;;;19.67;4.90;;;20.00;97.30;;;;;;7286920;19;20187;-83
2023/06/02 12:31:08;;;;;;;20.73;4.57;;;19.80;98.00;;;;;;7288546;19;20290;-83
2023/06/02 12:33:34;;;;;;;15.10;4.83;;;20.00;99.10;;;;;;7287746;19;20192;-83
2023/06/02 12:36:00;;;;;;;12.50;4.30;;;19.80;98.30;;;;;;7286080;19;20190;-82
2023/06/02 12:38:27;;;;;;;17.30;5.20;;;19.70;99.20;;;;;;7286936;19;20178;-82
2023/06/02 12:40:53;;;;;;;15.40;4.70;;;19.70;99.90;;;;;;7286519;19;20191;-82
2023/06/02 12:43:19;;;;;;;15.23;5.07;;;19.70;99.40;;;;;;7288627;19;20185;-82